Time;durP1;ratioP1;P1;durP2;ratioP2;P2;SDS_P1;SDS_P2;PMS_P1;PMS_P2;Temp;Humidity;BMP_temperature;BMP_pressure;BME280_temperature;BME280_humidity;BME280_pressure;Samples;Min_cycle;Max_cycle;Signal;HPM_P1;HPM_P2
2022/05/10 00:02:17;;;;;;;8.87;7.93;;;;;;;14.71;69.00;100833.56;5083454;28;20487;-61
2022/05/10 00:04:46;;;;;;;11.77;8.57;;;;;;;14.60;69.56;100823.84;5082518;28;20467;-61
2022/05/10 00:07:13;;;;;;;8.33;7.43;;;;;;;14.60;68.65;100826.53;5083104;28;20480;-61
2022/05/10 00:09:39;;;;;;;9.13;8.23;;;;;;;14.64;67.31;100823.41;5083271;28;20447;-62
2022/05/10 00:12:08;;;;;;;9.13;8.07;;;;;;;14.68;67.01;100813.16;5083358;28;20464;-62
2022/05/10 00:14:35;;;;;;;9.37;7.47;;;;;;;14.81;66.23;100813.63;5083146;28;20467;-63
2022/05/10 00:17:02;;;;;;;11.20;7.50;;;;;;;14.80;66.29;100811.09;5082741;28;20507;-63
2022/05/10 00:19:30;;;;;;;11.47;7.63;;;;;;;14.72;66.81;100814.56;5082281;28;20842;-63
2022/05/10 00:21:57;;;;;;;10.70;7.30;;;;;;;14.75;67.00;100810.72;5083188;28;20475;-63
2022/05/10 00:24:24;;;;;;;9.30;7.60;;;;;;;14.69;67.02;100806.81;5083674;28;20455;-63
2022/05/10 00:26:52;;;;;;;9.20;7.53;;;;;;;14.60;67.80;100805.00;5082601;28;20480;-63
2022/05/10 00:29:20;;;;;;;9.57;8.37;;;;;;;14.50;69.05;100802.38;5082661;28;20459;-63
2022/05/10 00:31:47;;;;;;;10.00;8.20;;;;;;;14.45;69.33;100810.91;5082710;28;20467;-62
2022/05/10 00:34:16;;;;;;;13.23;8.73;;;;;;;14.34;69.27;100796.81;5082366;28;20487;-62
2022/05/10 00:36:43;;;;;;;9.53;8.53;;;;;;;14.39;68.65;100799.88;5082668;28;20904;-62
2022/05/10 00:39:10;;;;;;;10.40;7.70;;;;;;;14.28;68.85;100790.19;5081975;28;20488;-62
2022/05/10 00:41:46;;;;;;;13.20;9.33;;;;;;;14.32;68.44;100795.13;5082994;28;20468;-62
2022/05/10 00:44:16;;;;;;;9.20;7.37;;;;;;;14.28;68.04;100793.72;5082876;28;21083;-62
2022/05/10 00:46:47;;;;;;;8.37;7.00;;;;;;;14.28;67.76;100788.34;5082212;28;20480;-62
2022/05/10 00:49:19;;;;;;;8.23;7.43;;;;;;;14.30;67.31;100789.06;5082274;28;20880;-62
2022/05/10 00:51:48;;;;;;;9.20;7.03;;;;;;;14.31;67.49;100784.53;5082514;28;20533;-62
2022/05/10 00:54:25;;;;;;;8.50;7.50;;;;;;;14.24;68.27;100786.13;5083121;28;20472;-62
2022/05/10 00:56:55;;;;;;;9.60;7.13;;;;;;;14.15;68.57;100782.50;5082166;28;20513;-62
2022/05/10 00:59:26;;;;;;;9.50;7.83;;;;;;;14.02;69.75;100784.69;5082694;28;20513;-62
2022/05/10 01:02:01;;;;;;;9.60;7.93;;;;;;;13.92;70.24;100782.03;5081537;28;20499;-61
2022/05/10 01:04:33;;;;;;;9.63;7.83;;;;;;;13.86;70.72;100782.66;5081906;28;20450;-61
2022/05/10 01:07:04;;;;;;;9.70;8.53;;;;;;;13.79;71.29;100785.09;5080874;28;20467;-61
2022/05/10 01:09:36;;;;;;;9.30;8.23;;;;;;;13.72;71.92;100770.56;5082192;28;20559;-62
2022/05/10 01:12:06;;;;;;;10.87;8.50;;;;;;;13.69;72.42;100774.38;5082340;28;20472;-61
2022/05/10 01:14:37;;;;;;;11.63;8.63;;;;;;;13.75;72.31;100771.09;5081189;28;20539;-61
2022/05/10 01:17:05;;;;;;;11.17;9.00;;;;;;;13.69;72.78;100762.78;5081726;28;20471;-62
2022/05/10 01:19:34;;;;;;;10.27;8.93;;;;;;;13.67;72.87;100759.41;5080906;28;20491;-61
2022/05/10 01:22:12;;;;;;;8.73;7.73;;;;;;;13.64;72.61;100765.06;5081767;28;20486;-61
2022/05/10 01:24:54;;;;;;;9.13;8.23;;;;;;;13.71;72.70;100761.66;5082427;28;20944;-61
2022/05/10 01:27:42;;;;;;;9.13;8.23;;;;;;;13.72;72.82;100763.34;5081619;28;20476;-62
2022/05/10 01:30:12;;;;;;;14.13;8.00;;;;;;;13.78;72.21;100761.88;5081816;28;20553;-62
2022/05/10 01:35:32;;;;;;;9.67;8.10;;;;;;;13.98;70.66;100765.34;5060738;28;20483;-62
2022/05/10 01:38:00;;;;;;;9.33;8.37;;;;;;;14.04;71.28;100753.97;5063821;28;20443;-62
2022/05/10 01:40:32;;;;;;;8.60;7.63;;;;;;;14.07;70.00;100756.34;5080537;28;20940;-62
2022/05/10 01:43:02;;;;;;;7.80;7.00;;;;;;;14.05;69.41;100750.28;5081848;28;20489;-62
2022/05/10 01:45:35;;;;;;;8.70;7.40;;;;;;;14.20;68.75;100756.00;5080681;28;20915;-62
2022/05/10 01:48:03;;;;;;;9.73;8.40;;;;;;;14.35;67.64;100756.31;5081688;28;20462;-61
2022/05/10 01:50:33;;;;;;;9.80;7.60;;;;;;;14.29;68.13;100752.41;5080962;28;20470;-62
2022/05/10 01:53:06;;;;;;;9.47;7.83;;;;;;;14.20;69.01;100749.75;5081599;28;21038;-62
2022/05/10 01:55:34;;;;;;;11.73;8.17;;;;;;;14.22;68.19;100745.94;5080839;28;20538;-62
2022/05/10 01:58:03;;;;;;;10.63;7.10;;;;;;;14.09;68.32;100740.91;5080280;28;20444;-63
2022/05/10 02:00:33;;;;;;;7.13;6.33;;;;;;;14.10;67.88;100742.63;5080806;28;20898;-62
2022/05/10 02:03:02;;;;;;;10.60;7.67;;;;;;;14.01;68.59;100743.53;5074443;28;20441;-62
2022/05/10 02:05:34;;;;;;;9.40;7.57;;;;;;;14.01;68.28;100742.66;5072665;28;20483;-62
2022/05/10 02:08:06;;;;;;;10.67;8.17;;;;;;;14.05;67.97;100739.53;5081052;28;20440;-62
2022/05/10 02:10:39;;;;;;;8.03;7.23;;;;;;;13.96;68.37;100727.00;5080469;28;20471;-61
2022/05/10 02:13:11;;;;;;;14.97;8.80;;;;;;;13.87;68.67;100730.56;5081725;28;20472;-62
2022/05/10 02:15:45;;;;;;;8.40;7.50;;;;;;;13.91;68.78;100735.50;5062594;28;20472;-62
2022/05/10 02:18:16;;;;;;;10.63;7.40;;;;;;;13.85;68.95;100733.44;5081078;28;20476;-62
2022/05/10 02:20:47;;;;;;;14.53;7.80;;;;;;;13.75;69.06;100728.13;5061048;28;20472;-62
2022/05/10 02:23:19;;;;;;;9.63;8.00;;;;;;;13.80;69.31;100719.59;5081218;28;20439;-61
2022/05/10 02:25:49;;;;;;;8.40;7.60;;;;;;;13.73;69.46;100721.19;5080372;28;20464;-61
2022/05/10 02:28:22;;;;;;;9.33;8.00;;;;;;;13.67;69.71;100719.09;5080986;28;20519;-61
2022/05/10 02:30:52;;;;;;;9.27;7.70;;;;;;;13.60;69.97;100713.47;5080842;28;20472;-62
2022/05/10 02:33:18;;;;;;;9.13;7.73;;;;;;;13.59;69.85;100708.25;5080346;28;21163;-62
2022/05/10 02:35:50;;;;;;;8.60;7.70;;;;;;;13.58;69.83;100704.72;5079946;28;20475;-61
2022/05/10 02:38:27;;;;;;;8.80;7.33;;;;;;;13.47;70.58;100711.16;5080700;28;20229;-61
2022/05/10 02:40:56;;;;;;;9.97;8.23;;;;;;;13.60;70.30;100701.91;5080299;28;20483;-61
2022/05/10 02:43:26;;;;;;;9.90;8.90;;;;;;;13.57;70.56;100700.34;5080464;28;20446;-62
2022/05/10 02:45:55;;;;;;;11.20;7.80;;;;;;;13.61;70.64;100698.19;5074462;28;20472;-61
2022/05/10 02:48:24;;;;;;;11.50;7.80;;;;;;;13.49;71.11;100702.94;5080448;28;20448;-62
2022/05/10 02:50:51;;;;;;;9.30;7.93;;;;;;;13.37;71.37;100697.75;5080180;28;20992;-63
2022/05/10 02:53:17;;;;;;;9.70;8.60;;;;;;;13.35;71.79;100699.75;5081619;28;20464;-62
2022/05/10 02:55:50;;;;;;;10.20;8.30;;;;;;;13.23;72.38;100694.66;5080319;28;20514;-62
2022/05/10 02:58:21;;;;;;;11.63;8.27;;;;;;;13.24;72.48;100693.66;5080317;28;20458;-63
2022/05/10 03:00:49;;;;;;;10.00;7.60;;;;;;;13.26;72.74;100689.84;5080404;28;20479;-60
2022/05/10 03:03:18;;;;;;;11.07;8.57;;;;;;;13.23;72.91;100689.28;5076365;28;20444;-61
2022/05/10 03:05:45;;;;;;;9.87;8.87;;;;;;;13.10;73.44;100679.72;5079917;28;20472;-61
2022/05/10 03:08:12;;;;;;;10.57;9.17;;;;;;;13.03;73.76;100691.19;5080408;28;20444;-62
2022/05/10 03:10:39;;;;;;;10.00;8.53;;;;;;;13.15;73.02;100680.13;5080096;28;20469;-62
2022/05/10 03:13:06;;;;;;;13.20;8.57;;;;;;;13.15;72.79;100677.44;5080638;28;20475;-62
2022/05/10 03:15:33;;;;;;;9.10;8.20;;;;;;;13.22;72.12;100677.69;5079754;28;20471;-62
2022/05/10 03:17:59;;;;;;;13.50;8.50;;;;;;;13.28;72.28;100678.94;5080151;28;20442;-62
2022/05/10 03:20:27;;;;;;;10.30;7.80;;;;;;;13.25;72.25;100680.09;5080266;28;20478;-62
2022/05/10 03:22:54;;;;;;;8.80;7.90;;;;;;;13.27;72.39;100682.66;5083469;28;20443;-61
2022/05/10 03:25:22;;;;;;;8.90;8.00;;;;;;;13.22;72.72;100687.59;5083412;28;20436;-61
2022/05/10 03:27:49;;;;;;;9.00;8.10;;;;;;;13.12;73.41;100677.75;5084824;28;20436;-61
2022/05/10 03:30:16;;;;;;;9.33;8.43;;;;;;;13.12;73.56;100674.22;5083252;28;21226;-61
2022/05/10 03:32:43;;;;;;;9.50;8.10;;;;;;;13.08;73.99;100684.41;5084057;28;20493;-61
2022/05/10 03:35:12;;;;;;;9.33;8.50;;;;;;;13.08;74.07;100680.88;5082721;28;20490;-61
2022/05/10 03:37:40;;;;;;;9.33;8.43;;;;;;;13.06;74.01;100682.88;5084348;28;20523;-61
2022/05/10 03:40:08;;;;;;;10.67;9.57;;;;;;;13.02;73.90;100670.72;5082515;28;20484;-62
2022/05/10 03:42:43;;;;;;;10.20;8.97;;;;;;;12.99;74.04;100677.22;5084754;28;20463;-62
2022/05/10 03:45:11;;;;;;;10.00;8.93;;;;;;;12.98;74.20;100670.16;5082574;28;20453;-62
2022/05/10 03:47:37;;;;;;;9.27;8.33;;;;;;;13.03;74.13;100678.63;5084116;28;20473;-63
2022/05/10 03:50:05;;;;;;;11.00;9.90;;;;;;;13.03;73.76;100673.25;5083520;28;20463;-63
2022/05/10 03:52:31;;;;;;;11.50;8.53;;;;;;;13.07;73.73;100674.66;5083883;28;20525;-62
2022/05/10 03:54:59;;;;;;;9.30;8.00;;;;;;;13.13;73.79;100676.75;5084194;28;20484;-62
2022/05/10 03:57:26;;;;;;;9.33;8.43;;;;;;;13.12;73.26;100669.72;5083703;28;20472;-61
2022/05/10 03:59:53;;;;;;;9.60;8.70;;;;;;;13.23;72.99;100665.97;5083266;28;20452;-62
2022/05/10 04:02:20;;;;;;;10.27;8.50;;;;;;;13.24;72.88;100664.97;5083082;28;20855;-62
2022/05/10 04:04:46;;;;;;;9.40;8.50;;;;;;;13.26;72.72;100668.38;5083436;28;20440;-62
2022/05/10 04:07:13;;;;;;;9.20;8.20;;;;;;;13.29;72.91;100667.22;5083471;28;20483;-62
2022/05/10 04:09:40;;;;;;;9.90;8.33;;;;;;;13.37;72.20;100667.38;5082786;28;20448;-63
2022/05/10 04:12:09;;;;;;;10.17;8.13;;;;;;;13.48;71.83;100666.31;5082794;28;20531;-66
2022/05/10 04:14:36;;;;;;;9.67;8.67;;;;;;;13.49;71.36;100668.03;5083464;28;20476;-66
2022/05/10 04:17:03;;;;;;;11.20;8.63;;;;;;;13.50;71.14;100658.94;5082511;28;21131;-66
2022/05/10 04:19:30;;;;;;;16.83;8.90;;;;;;;13.73;70.47;100662.06;5082216;28;20440;-67
2022/05/10 04:21:57;;;;;;;8.20;7.40;;;;;;;13.84;69.91;100667.25;5078081;28;20536;-65
2022/05/10 04:24:24;;;;;;;8.90;8.00;;;;;;;13.99;70.19;100664.03;5073231;28;20437;-66
2022/05/10 04:26:51;;;;;;;9.07;7.93;;;;;;;14.06;69.77;100663.28;5078134;28;20472;-66
2022/05/10 04:29:19;;;;;;;11.33;7.10;;;;;;;14.08;69.77;100660.44;5074999;28;20451;-63
2022/05/10 04:31:46;;;;;;;8.80;7.80;;;;;;;13.96;69.81;100672.38;5072975;28;20475;-63
2022/05/10 04:34:12;;;;;;;11.10;7.93;;;;;;;14.02;70.15;100669.94;5070529;28;20499;-63
2022/05/10 04:36:39;;;;;;;9.00;8.10;;;;;;;13.93;70.73;100668.16;5076967;28;20492;-63
2022/05/10 04:39:06;;;;;;;10.90;9.13;;;;;;;14.14;70.63;100662.50;5082570;28;20480;-63
2022/05/10 04:41:33;;;;;;;9.00;8.10;;;;;;;14.31;70.22;100666.19;5082916;28;20480;-63
2022/05/10 04:44:02;;;;;;;10.23;8.60;;;;;;;14.60;69.04;100660.56;5070448;28;20441;-63
2022/05/10 04:46:31;;;;;;;8.70;7.80;;;;;;;14.81;68.23;100660.19;5072576;28;20468;-63
2022/05/10 04:48:58;;;;;;;8.33;7.53;;;;;;;15.11;67.86;100662.56;5075362;28;20464;-63
2022/05/10 04:51:25;;;;;;;9.03;8.13;;;;;;;15.21;67.55;100666.00;5070316;28;20479;-63
2022/05/10 04:53:52;;;;;;;10.23;8.60;;;;;;;15.53;65.45;100661.75;5074795;28;20500;-63
2022/05/10 04:56:18;;;;;;;9.87;7.70;;;;;;;15.73;64.97;100665.03;5079878;28;20478;-63
2022/05/10 04:58:45;;;;;;;11.20;7.97;;;;;;;16.50;63.38;100678.31;5081277;28;20467;-62
2022/05/10 05:01:14;;;;;;;7.77;7.07;;;;;;;16.63;61.20;100670.53;5066117;28;20468;-62
2022/05/10 05:03:44;;;;;;;10.13;8.00;;;;;;;17.01;59.53;100665.47;5074014;28;20459;-63
2022/05/10 05:06:11;;;;;;;8.03;7.17;;;;;;;17.09;59.34;100662.72;5070950;28;20488;-62
2022/05/10 05:08:38;;;;;;;7.97;6.70;;;;;;;17.64;58.37;100666.41;5071265;28;20456;-62
2022/05/10 05:11:05;;;;;;;7.67;6.87;;;;;;;17.56;58.70;100665.59;5072120;28;20480;-65
2022/05/10 05:13:32;;;;;;;7.90;6.47;;;;;;;17.75;58.37;100661.63;5070590;28;20436;-64
2022/05/10 05:15:59;;;;;;;7.10;6.40;;;;;;;18.22;56.58;100666.91;5079863;28;20487;-63
2022/05/10 05:18:26;;;;;;;9.27;6.70;;;;;;;18.53;55.27;100665.97;5081289;28;20456;-68
2022/05/10 05:20:54;;;;;;;13.70;7.93;;;;;;;18.05;56.42;100671.63;5077226;28;20558;-67
2022/05/10 05:23:22;;;;;;;7.60;6.90;;;;;;;18.10;56.63;100675.63;5082321;28;20504;-67
2022/05/10 05:25:49;;;;;;;8.03;7.20;;;;;;;17.68;58.21;100669.59;5079927;28;20502;-63
2022/05/10 05:28:16;;;;;;;9.10;7.03;;;;;;;18.08;57.74;100677.69;5080946;28;20440;-64
2022/05/10 05:30:44;;;;;;;8.37;6.53;;;;;;;18.16;57.51;100675.75;5068247;28;20488;-65
2022/05/10 05:33:11;;;;;;;8.33;7.10;;;;;;;17.76;58.77;100672.25;5081899;28;20472;-69
2022/05/10 05:35:38;;;;;;;10.87;6.70;;;;;;;17.91;57.61;100682.34;5080092;28;21045;-65
2022/05/10 05:38:06;;;;;;;8.40;7.50;;;;;;;18.00;58.57;100678.56;5081889;28;20463;-66
2022/05/10 05:40:34;;;;;;;7.47;6.60;;;;;;;17.91;58.93;100683.19;5081100;28;20501;-64
2022/05/10 05:43:01;;;;;;;9.30;7.20;;;;;;;17.81;59.02;100680.69;5081140;28;20471;-67
2022/05/10 05:45:28;;;;;;;10.20;7.57;;;;;;;17.90;58.48;100681.50;5079885;28;20519;-65
2022/05/10 05:47:55;;;;;;;9.30;7.40;;;;;;;18.10;58.03;100681.03;5079923;28;20506;-64
2022/05/10 05:50:23;;;;;;;8.90;7.07;;;;;;;18.77;56.08;100683.06;5067141;28;20514;-66
2022/05/10 05:52:51;;;;;;;11.27;7.47;;;;;;;19.22;55.85;100673.13;5061492;28;20433;-65
2022/05/10 05:55:20;;;;;;;8.93;6.67;;;;;;;19.23;56.06;100671.25;5061259;28;20479;-66
2022/05/10 05:57:47;;;;;;;9.97;7.33;;;;;;;19.38;55.09;100666.66;5060953;28;20481;-65
2022/05/10 06:00:17;;;;;;;9.20;7.23;;;;;;;19.42;55.01;100661.72;5061144;28;20471;-64
2022/05/10 06:02:44;;;;;;;6.80;6.20;;;;;;;20.04;53.65;100668.53;5061135;28;20441;-63
2022/05/10 06:05:11;;;;;;;7.83;6.40;;;;;;;19.90;54.13;100667.53;5059864;28;20475;-64
2022/05/10 06:07:38;;;;;;;9.70;7.90;;;;;;;19.69;55.21;100662.88;5061291;28;20448;-66
2022/05/10 06:10:06;;;;;;;10.13;8.00;;;;;;;19.91;54.82;100663.78;5061287;28;20465;-65
2022/05/10 06:12:34;;;;;;;7.07;6.20;;;;;;;20.20;53.42;100672.88;5073716;28;20468;-64
2022/05/10 06:15:02;;;;;;;9.00;6.10;;;;;;;20.22;53.72;100665.34;5080862;28;20488;-63
2022/05/10 06:17:29;;;;;;;6.63;5.60;;;;;;;21.43;48.19;100663.34;5073176;28;20490;-63
2022/05/10 06:19:58;;;;;;;5.83;5.33;;;;;;;21.79;46.43;100658.72;5079452;28;20455;-64
2022/05/10 06:22:25;;;;;;;7.33;5.77;;;;;;;22.98;41.66;100662.59;5080607;28;21008;-64
2022/05/10 06:24:52;;;;;;;8.73;5.70;;;;;;;23.77;42.24;100663.41;5066223;28;20488;-64
2022/05/10 06:27:19;;;;;;;6.80;5.30;;;;;;;23.60;41.11;100657.59;5094388;28;20521;-64
2022/05/10 06:29:49;;;;;;;7.13;5.70;;;;;;;23.52;44.17;100660.56;5077162;28;20471;-64
2022/05/10 06:32:21;;;;;;;9.47;5.97;;;;;;;23.94;44.50;100663.78;5085830;28;20475;-64
2022/05/10 06:34:49;;;;;;;9.27;6.33;;;;;;;22.05;48.38;100657.09;5094376;28;21056;-65
2022/05/10 06:39:57;;;;;;;6.83;5.60;;;;;;;23.45;43.79;100651.59;5066950;28;20563;-68
2022/05/10 06:42:24;;;;;;;9.00;6.27;;;;;;;23.98;39.65;100656.81;5095624;28;20464;-66
2022/05/10 06:44:53;;;;;;;7.63;5.80;;;;;;;24.13;40.65;100658.41;5075541;28;20479;-64
2022/05/10 06:47:20;;;;;;;8.23;5.00;;;;;;;24.85;39.57;100653.44;5080577;28;20487;-67
2022/05/10 06:49:46;;;;;;;5.90;5.40;;;;;;;24.98;37.21;100647.84;5081078;28;20455;-64
2022/05/10 06:52:17;;;;;;;8.00;5.90;;;;;;;25.26;36.53;100654.72;5071655;28;21043;-67
2022/05/10 06:54:44;;;;;;;6.20;5.60;;;;;;;26.10;33.38;100643.94;5070434;28;20641;-64
2022/05/10 06:57:11;;;;;;;9.10;5.77;;;;;;;26.50;33.03;100639.75;5100222;28;20475;-65
2022/05/10 06:59:38;;;;;;;12.67;6.20;;;;;;;25.26;34.94;100649.25;5091080;28;21042;-65
2022/05/10 07:02:06;;;;;;;7.63;5.93;;;;;;;25.74;35.44;100637.50;5072835;28;21048;-67
2022/05/10 07:04:33;;;;;;;6.50;5.70;;;;;;;26.93;31.79;100637.75;5066456;28;20869;-66
2022/05/10 07:07:00;;;;;;;8.73;6.33;;;;;;;26.49;32.15;100641.66;5090868;28;20470;-65
2022/05/10 07:09:26;;;;;;;9.60;5.23;;;;;;;25.69;34.33;100625.53;5104294;28;20470;-66
2022/05/10 07:11:53;;;;;;;6.17;5.57;;;;;;;25.72;34.23;100622.34;5088767;28;21060;-64
2022/05/10 07:14:21;;;;;;;6.33;5.70;;;;;;;24.58;36.64;100626.34;5067380;28;20444;-68
2022/05/10 07:16:48;;;;;;;7.60;5.80;;;;;;;24.34;37.34;100630.72;5097997;28;20473;-65
2022/05/10 07:19:16;;;;;;;10.30;6.10;;;;;;;25.16;35.13;100629.75;5094047;28;20465;-64
2022/05/10 07:21:43;;;;;;;7.57;5.47;;;;;;;25.82;34.48;100619.91;5096817;28;20467;-68
2022/05/10 07:24:09;;;;;;;10.03;6.70;;;;;;;25.75;34.52;100624.63;5088293;28;20447;-69
2022/05/10 07:26:36;;;;;;;10.50;6.20;;;;;;;25.15;35.42;100628.09;5086558;28;20505;-64
2022/05/10 07:29:03;;;;;;;8.20;6.30;;;;;;;24.97;35.32;100623.44;5100060;28;20448;-64
2022/05/10 07:31:30;;;;;;;6.83;6.00;;;;;;;25.64;34.16;100614.44;5072826;28;20487;-66
2022/05/10 07:33:56;;;;;;;6.57;5.97;;;;;;;25.65;34.94;100616.97;5083744;28;20495;-67
2022/05/10 07:36:25;;;;;;;6.83;6.23;;;;;;;26.17;34.23;100621.09;5083117;28;20483;-65
2022/05/10 07:38:52;;;;;;;9.13;6.27;;;;;;;25.91;34.26;100614.91;5083213;28;21113;-68
2022/05/10 07:41:22;;;;;;;9.10;6.53;;;;;;;26.45;33.53;100609.47;5082960;28;20890;-68
2022/05/10 07:43:49;;;;;;;10.30;6.77;;;;;;;26.22;34.22;100611.09;5083761;28;20486;-64
2022/05/10 07:46:17;;;;;;;7.60;6.20;;;;;;;27.48;32.08;100604.38;5083506;28;20460;-66
2022/05/10 07:48:43;;;;;;;7.77;6.87;;;;;;;27.28;32.41;100607.53;5082993;28;20481;-67
2022/05/10 07:51:10;;;;;;;10.80;6.00;;;;;;;27.64;31.90;100613.75;5073355;28;20476;-67
2022/05/10 07:53:41;;;;;;;6.87;6.27;;;;;;;28.71;31.05;100609.31;5064116;28;20429;-64
2022/05/10 07:56:07;;;;;;;7.40;6.00;;;;;;;29.12;29.56;100611.78;5062400;28;20526;-65
2022/05/10 07:58:35;;;;;;;12.07;5.73;;;;;;;29.40;29.17;100594.25;5063371;28;20425;-67
2022/05/10 08:01:02;;;;;;;6.90;6.30;;;;;;;29.34;28.95;100600.81;5063018;28;20479;-64
2022/05/10 08:03:29;;;;;;;7.57;6.83;;;;;;;28.93;30.08;100603.00;5062063;28;20483;-68
2022/05/10 08:05:56;;;;;;;8.10;6.53;;;;;;;29.76;28.36;100602.94;5060539;28;20472;-68
2022/05/10 08:08:24;;;;;;;7.43;6.80;;;;;;;28.12;30.46;100595.13;5058948;28;20433;-66
2022/05/10 08:10:54;;;;;;;11.90;7.50;;;;;;;28.30;30.94;100594.06;5049358;28;20472;-69
2022/05/10 08:13:22;;;;;;;7.50;6.77;;;;;;;28.13;32.13;100592.13;5063221;28;20436;-66
2022/05/10 08:15:50;;;;;;;7.90;6.70;;;;;;;28.20;31.37;100594.72;5071432;28;20501;-66
2022/05/10 08:18:18;;;;;;;8.80;7.13;;;;;;;27.84;31.79;100588.56;5082097;28;20442;-64
2022/05/10 08:20:45;;;;;;;11.47;7.10;;;;;;;28.29;31.06;100586.88;5081993;28;20459;-65
2022/05/10 08:23:16;;;;;;;12.23;7.20;;;;;;;28.45;31.13;100585.19;5082970;28;20481;-65
2022/05/10 08:25:43;;;;;;;8.83;7.70;;;;;;;28.73;30.34;100587.88;5081134;28;20490;-65
2022/05/10 08:28:13;;;;;;;9.03;7.70;;;;;;;27.79;31.94;100581.06;5082256;28;20550;-64
2022/05/10 08:30:40;;;;;;;7.70;7.00;;;;;;;28.79;31.20;100586.00;5082112;28;20466;-68
2022/05/10 08:33:10;;;;;;;9.47;6.97;;;;;;;29.06;29.75;100588.00;5082341;28;20463;-68
2022/05/10 08:35:37;;;;;;;6.63;6.00;;;;;;;29.58;30.02;100581.22;5081787;28;20486;-66
2022/05/10 08:38:03;;;;;;;9.20;7.90;;;;;;;27.83;31.79;100575.06;5083012;28;20435;-65
2022/05/10 08:40:34;;;;;;;7.50;6.80;;;;;;;28.18;31.32;100583.13;5080880;28;21010;-67
2022/05/10 08:43:03;;;;;;;8.70;7.30;;;;;;;29.10;30.19;100586.44;5082779;28;20424;-68
2022/05/10 08:45:34;;;;;;;7.83;6.90;;;;;;;30.38;28.84;100576.78;5081559;28;20472;-66
2022/05/10 08:48:01;;;;;;;7.97;6.77;;;;;;;31.13;27.57;100573.91;5081342;28;20459;-67
2022/05/10 08:50:27;;;;;;;8.43;6.33;;;;;;;30.02;29.01;100572.88;5080716;28;20464;-67
2022/05/10 08:52:55;;;;;;;6.90;6.23;;;;;;;30.11;28.68;100571.28;5083011;28;20439;-66
2022/05/10 08:55:25;;;;;;;7.53;6.70;;;;;;;31.05;27.27;100570.84;5081220;28;20471;-69
2022/05/10 08:57:53;;;;;;;6.17;5.57;;;;;;;30.16;28.73;100560.31;5081874;28;20470;-63
2022/05/10 09:00:28;;;;;;;9.03;6.40;;;;;;;31.17;27.25;100563.97;5081712;28;20452;-65
2022/05/10 09:02:58;;;;;;;11.63;7.13;;;;;;;31.57;26.41;100549.75;5082126;28;20434;-66
2022/05/10 09:05:28;;;;;;;13.30;5.90;;;;;;;31.93;26.50;100556.16;5081560;28;20448;-67
2022/05/10 09:08:02;;;;;;;6.90;6.17;;;;;;;31.28;26.99;100561.25;5082288;28;20475;-66
2022/05/10 09:10:34;;;;;;;8.40;5.90;;;;;;;30.88;27.71;100543.38;5080551;28;20462;-64
2022/05/10 09:13:04;;;;;;;6.57;5.97;;;;;;;30.38;28.59;100548.34;5082797;28;20437;-66
2022/05/10 09:15:35;;;;;;;6.40;5.40;;;;;;;30.47;28.30;100545.91;5081458;28;20472;-69
2022/05/10 09:18:09;;;;;;;7.10;6.40;;;;;;;29.68;28.90;100542.75;5081944;28;20442;-70
2022/05/10 09:20:41;;;;;;;7.53;5.70;;;;;;;29.00;30.94;100548.59;5080173;28;20463;-64
2022/05/10 09:23:27;;;;;;;7.80;5.80;;;;;;;29.54;29.62;100536.00;5082380;28;20455;-67
2022/05/10 09:25:56;;;;;;;8.20;5.70;;;;;;;30.43;28.46;100542.84;5081571;28;21242;-66
2022/05/10 09:28:29;;;;;;;7.43;6.17;;;;;;;30.24;28.47;100534.16;5080043;28;20459;-67
2022/05/10 09:36:28;;;;;;;6.60;5.73;;;;;;;29.60;30.12;100527.53;5080820;28;20903;-67
2022/05/10 09:39:00;;;;;;;7.37;6.67;;;;;;;29.35;29.85;100525.34;5080694;28;20452;-67
2022/05/10 09:41:32;;;;;;;9.30;5.40;;;;;;;31.01;27.13;100522.78;5080952;28;20499;-68
2022/05/10 09:44:15;;;;;;;6.00;5.40;;;;;;;30.33;27.71;100516.03;5081275;28;20428;-67
2022/05/10 09:46:42;;;;;;;9.33;6.20;;;;;;;30.04;27.98;100519.13;5077920;28;20499;-68
2022/05/10 09:49:30;;;;;;;7.17;6.00;;;;;;;29.46;30.07;100507.00;5061349;28;20493;-65
2022/05/10 09:51:58;;;;;;;7.57;6.00;;;;;;;29.66;29.83;100501.69;5061126;28;20477;-65
2022/05/10 09:54:37;;;;;;;7.00;5.90;;;;;;;29.75;28.68;100495.69;5061336;28;20459;-66
2022/05/10 09:57:10;;;;;;;7.20;5.60;;;;;;;30.50;29.01;100492.97;5076847;28;20483;-66
2022/05/10 09:59:41;;;;;;;7.97;4.53;;;;;;;31.91;27.45;100497.53;5080794;28;20450;-67
2022/05/10 10:02:15;;;;;;;6.23;5.30;;;;;;;32.26;25.95;100493.09;5080429;28;20479;-66
2022/05/10 10:04:44;;;;;;;6.03;5.20;;;;;;;31.95;27.66;100493.09;5081262;28;20877;-64
2022/05/10 10:07:13;;;;;;;8.30;5.90;;;;;;;31.03;27.21;100485.50;5080646;28;20494;-65
2022/05/10 10:09:42;;;;;;;6.27;5.77;;;;;;;31.51;26.25;100483.41;5080149;28;20462;-67
2022/05/10 10:12:17;;;;;;;7.70;5.50;;;;;;;31.61;25.86;100484.53;5080834;28;20475;-68
2022/05/10 10:14:45;;;;;;;5.17;4.77;;;;;;;31.00;26.74;100483.28;5078523;28;20683;-66
2022/05/10 10:17:22;;;;;;;5.67;5.17;;;;;;;30.94;26.81;100479.66;5068103;28;20487;-67
2022/05/10 10:19:53;;;;;;;5.27;4.77;;;;;;;29.55;28.49;100466.06;5070341;28;20451;-65
2022/05/10 10:22:27;;;;;;;7.50;5.27;;;;;;;28.10;30.64;100479.09;5073184;28;20471;-68
2022/05/10 10:24:58;;;;;;;7.27;4.10;;;;;;;27.99;30.87;100480.84;5065578;28;20476;-68
2022/05/10 10:27:37;;;;;;;8.50;5.60;;;;;;;28.44;29.74;100473.53;5069931;28;20567;-63
2022/05/10 10:30:07;;;;;;;7.53;5.30;;;;;;;28.87;28.75;100463.66;5073395;28;20439;-68
2022/05/10 10:32:39;;;;;;;6.27;4.80;;;;;;;29.43;29.55;100463.47;5079962;28;20518;-66
2022/05/10 10:35:13;;;;;;;5.73;5.13;;;;;;;29.73;27.80;100467.56;5079740;28;20462;-66
2022/05/10 10:37:43;;;;;;;6.67;5.77;;;;;;;29.08;28.25;100462.81;5059434;28;20493;-68
2022/05/10 10:40:18;;;;;;;4.93;4.43;;;;;;;29.10;29.86;100468.06;5059787;28;20488;-67
2022/05/10 10:42:50;;;;;;;5.40;4.80;;;;;;;28.48;30.16;100459.00;5061019;28;20437;-68
2022/05/10 10:45:18;;;;;;;4.87;4.30;;;;;;;27.43;30.43;100450.50;5060608;28;20454;-68
2022/05/10 10:47:52;;;;;;;5.47;4.57;;;;;;;27.82;30.15;100447.84;5078219;28;20466;-65
2022/05/10 10:50:25;;;;;;;4.80;4.37;;;;;;;28.07;30.22;100457.59;5077917;28;20455;-65
2022/05/10 10:52:53;;;;;;;5.03;4.57;;;;;;;28.80;28.79;100441.00;5040232;28;20426;-68
2022/05/10 10:55:21;;;;;;;4.63;4.23;;;;;;;29.50;27.71;100441.22;5040404;28;20819;-68
2022/05/10 10:57:59;;;;;;;6.70;4.27;;;;;;;28.87;28.60;100422.38;5053773;28;20457;-65
2022/05/10 11:00:30;;;;;;;17.47;4.70;;;;;;;29.05;28.34;100421.19;5059331;28;20487;-65
2022/05/10 11:03:01;;;;;;;7.87;4.50;;;;;;;28.77;28.82;100417.59;5069232;28;20440;-65
2022/05/10 11:05:57;;;;;;;6.83;4.20;;;;;;;30.34;26.72;100417.53;5065516;28;20473;-65
2022/05/10 11:08:32;;;;;;;6.13;3.70;;;;;;;30.60;25.70;100418.50;5052401;28;20510;-66
2022/05/10 11:11:08;;;;;;;6.00;4.20;;;;;;;30.13;26.36;100420.19;5057635;28;20479;-65
2022/05/10 11:13:43;;;;;;;5.87;4.33;;;;;;;28.99;27.93;100434.09;5071186;28;20508;-69
2022/05/10 11:16:24;;;;;;;5.90;3.77;;;;;;;28.05;28.58;100437.78;5060273;28;20496;-70
2022/05/10 11:19:04;;;;;;;5.00;4.03;;;;;;;28.62;28.06;100426.47;5051334;28;20435;-66
2022/05/10 11:21:39;;;;;;;4.70;4.27;;;;;;;29.24;28.02;100422.53;5040930;28;20477;-69
2022/05/10 11:24:12;;;;;;;5.70;4.00;;;;;;;29.39;27.63;100410.81;5059615;28;20444;-68
2022/05/10 11:26:50;;;;;;;6.03;3.70;;;;;;;29.24;27.98;100418.94;5072045;28;20525;-64
2022/05/10 11:29:34;;;;;;;7.77;4.60;;;;;;;28.73;27.97;100406.28;5079757;28;20940;-64
2022/05/10 11:32:12;;;;;;;5.33;3.87;;;;;;;28.68;27.34;100413.66;5062439;28;20472;-67
2022/05/10 11:34:53;;;;;;;5.63;3.67;;;;;;;28.23;28.73;100418.25;5059605;28;20429;-68
2022/05/10 11:37:26;;;;;;;4.40;3.60;;;;;;;28.39;29.64;100407.47;5074856;28;20491;-65
2022/05/10 11:40:05;;;;;;;4.60;3.67;;;;;;;27.88;28.40;100402.91;5059106;28;20476;-66
2022/05/10 11:42:37;;;;;;;6.50;3.93;;;;;;;27.98;29.27;100399.47;5079821;28;20826;-66
2022/05/10 11:45:34;;;;;;;6.43;4.53;;;;;;;27.26;29.06;100397.47;5082388;28;20450;-66
2022/05/10 11:48:14;;;;;;;7.30;3.73;;;;;;;26.89;29.99;100393.25;5071848;28;20468;-64